Time;durP1;ratioP1;P1;durP2;ratioP2;P2;SDS_P1;SDS_P2;PMS_P1;PMS_P2;Temp;Humidity;BMP_temperature;BMP_pressure;BME280_temperature;BME280_humidity;BME280_pressure;Samples;Min_cycle;Max_cycle;Signal;HPM_P1;HPM_P2
2022/12/09 00:00:30;;;;;;;23.30;9.93;;;1.30;99.90;;;;;;4199064;28;20087;-84
2022/12/09 00:02:31;;;;;;;22.63;9.82;;;0.00;99.90;;;;;;4216512;28;20040;-84
2022/12/09 00:04:33;;;;;;;22.70;9.50;;;-1.40;99.90;;;;;;4199208;28;20529;-85
2022/12/09 00:06:35;;;;;;;26.40;10.63;;;0.10;99.90;;;;;;4234167;28;20042;-84
2022/12/09 00:08:37;;;;;;;22.80;10.02;;;-0.10;99.90;;;;;;4234379;28;20411;-85
2022/12/09 00:10:42;;;;;;;23.98;10.20;;;1.00;99.90;;;;;;4235315;28;20051;-85
2022/12/09 00:12:44;;;;;;;24.75;9.88;;;-0.10;99.90;;;;;;4235791;28;20058;-85
2022/12/09 00:14:45;;;;;;;23.70;9.57;;;-0.20;99.90;;;;;;4237515;28;20043;-85
2022/12/09 00:16:46;;;;;;;24.33;10.23;;;-0.20;99.90;;;;;;4236102;28;20107;-85
2022/12/09 00:18:49;;;;;;;20.77;8.65;;;0.10;99.90;;;;;;4237776;28;20047;-86
2022/12/09 00:20:52;;;;;;;20.50;9.40;;;-1.30;99.90;;;;;;4219794;28;20114;-86
2022/12/09 00:22:56;;;;;;;21.75;8.73;;;0.60;99.90;;;;;;4219063;28;20047;-86
2022/12/09 00:24:56;;;;;;;22.10;9.60;;;-0.20;99.90;;;;;;4236306;28;20066;-86
2022/12/09 00:27:03;;;;;;;23.88;9.65;;;1.00;99.90;;;;;;4202522;28;20048;-86
2022/12/09 00:29:05;;;;;;;21.45;9.07;;;0.50;99.90;;;;;;4220133;28;20040;-86
2022/12/09 00:31:17;;;;;;;22.90;10.70;;;-0.30;99.90;;;;;;4219628;28;20048;-86
2022/12/09 00:33:19;;;;;;;;;;;-0.40;99.90;;;;;;4220571;28;20071;-85
2022/12/09 00:35:21;;;;;;;21.33;8.68;;;-0.40;99.90;;;;;;4202103;28;19928;-86
2022/12/09 00:37:23;;;;;;;19.88;8.57;;;-0.50;99.90;;;;;;4219063;28;20055;-86
2022/12/09 00:39:25;;;;;;;22.48;8.98;;;1.00;99.90;;;;;;4202531;28;20070;-86
2022/12/09 00:41:29;;;;;;;25.23;8.55;;;-0.40;99.90;;;;;;4202919;28;20090;-86
2022/12/09 00:43:30;;;;;;;22.02;9.35;;;-0.30;99.90;;;;;;4215487;28;20052;-85
2022/12/09 00:45:33;;;;;;;22.27;8.70;;;0.90;99.90;;;;;;4236481;28;20064;-85
2022/12/09 00:47:36;;;;;;;20.77;8.95;;;-0.40;99.90;;;;;;4237998;28;20040;-85
2022/12/09 00:49:38;;;;;;;22.08;8.68;;;-0.40;99.90;;;;;;4236970;28;20164;-87
2022/12/09 00:51:39;;;;;;;23.83;9.60;;;-1.10;99.90;;;;;;4238727;28;20055;-85
2022/12/09 00:53:41;;;;;;;21.65;8.70;;;-1.60;99.90;;;;;;4239107;28;20039;-86
2022/12/09 00:55:46;;;;;;;22.23;8.70;;;0.20;99.90;;;;;;4241001;28;20058;-85
2022/12/09 00:57:49;;;;;;;24.65;9.00;;;-0.30;99.90;;;;;;4240531;28;20042;-86
2022/12/09 00:59:50;;;;;;;18.83;7.43;;;-0.40;99.90;;;;;;4228436;28;20040;-86
2022/12/09 01:01:54;;;;;;;19.05;7.68;;;0.00;99.90;;;;;;4207428;28;20142;-86
2022/12/09 01:03:56;;;;;;;17.73;8.52;;;-0.50;99.90;;;;;;4203992;28;20067;-85
2022/12/09 01:05:57;;;;;;;19.80;7.90;;;0.50;99.90;;;;;;4219031;28;20100;-85
2022/12/09 01:07:58;;;;;;;16.83;7.28;;;-0.50;99.90;;;;;;4201976;28;20052;-86
2022/12/09 01:10:00;;;;;;;16.48;7.45;;;1.00;99.90;;;;;;4218459;28;20087;-86
2022/12/09 01:12:02;;;;;;;16.15;7.05;;;-1.40;99.90;;;;;;4202212;28;20048;-85
2022/12/09 01:14:04;;;;;;;19.38;6.75;;;0.50;99.90;;;;;;4218677;28;20090;-85
2022/12/09 01:16:14;;;;;;;16.45;6.40;;;-0.40;99.90;;;;;;4202512;28;20040;-85
2022/12/09 01:18:21;;;;;;;20.73;7.75;;;-0.40;99.90;;;;;;4201645;28;20059;-85
2022/12/09 01:20:23;;;;;;;23.95;7.70;;;-0.40;99.90;;;;;;4202052;28;20090;-85
2022/12/09 01:22:24;;;;;;;15.85;7.68;;;-0.40;99.90;;;;;;4201772;28;20053;-85
2022/12/09 01:24:27;;;;;;;17.15;8.18;;;-0.50;99.90;;;;;;4202871;28;20470;-86
2022/12/09 01:26:29;;;;;;;20.33;7.10;;;-0.50;99.90;;;;;;4220243;28;20044;-86
2022/12/09 01:28:30;;;;;;;17.67;6.32;;;-0.40;99.90;;;;;;4219175;28;20075;-86
2022/12/09 01:30:32;;;;;;;16.55;6.22;;;-0.40;99.90;;;;;;4201880;28;20069;-85
2022/12/09 01:32:33;;;;;;;19.80;6.95;;;-0.40;99.90;;;;;;4219142;28;20043;-85
2022/12/09 01:34:36;;;;;;;16.67;6.53;;;0.20;99.90;;;;;;4235656;28;20577;-85
2022/12/09 01:36:38;;;;;;;17.17;7.18;;;0.80;99.90;;;;;;4237477;28;20039;-85
2022/12/09 01:38:40;;;;;;;17.20;7.22;;;-0.40;99.90;;;;;;4220586;28;20048;-85
2022/12/09 01:40:46;;;;;;;16.58;6.50;;;-0.90;99.90;;;;;;4220529;28;20086;-85
2022/12/09 01:42:49;;;;;;;15.25;6.32;;;-0.50;99.90;;;;;;4237231;28;20047;-85
2022/12/09 01:45:18;;;;;;;16.08;5.78;;;0.80;99.90;;;;;;4221812;28;20067;-86
2022/12/09 01:47:21;;;;;;;;;;;-0.40;99.90;;;;;;4240388;28;20449;-86
2022/12/09 01:49:27;;;;;;;17.15;6.57;;;-0.40;99.90;;;;;;4238644;28;20505;-86
2022/12/09 01:51:28;;;;;;;15.20;6.25;;;-0.40;99.90;;;;;;4227610;28;20048;-85
2022/12/09 01:53:36;;;;;;;18.00;6.57;;;0.10;99.90;;;;;;4220431;28;20145;-86
2022/12/09 01:55:40;;;;;;;15.73;6.43;;;0.50;99.90;;;;;;4220344;28;20097;-86
2022/12/09 01:57:44;;;;;;;14.20;5.95;;;-0.40;99.90;;;;;;4203147;28;20127;-86
2022/12/09 01:59:47;;;;;;;14.82;6.68;;;1.10;99.90;;;;;;4203071;28;20041;-86
2022/12/09 02:01:56;;;;;;;17.45;6.45;;;-0.50;99.90;;;;;;4203595;28;20485;-86
2022/12/09 02:03:58;;;;;;;15.95;7.05;;;-0.30;99.90;;;;;;4220732;28;20032;-85
2022/12/09 02:06:00;;;;;;;17.33;7.18;;;0.30;99.90;;;;;;4219954;28;20158;-86
2022/12/09 02:08:05;;;;;;;19.48;7.13;;;-0.40;99.90;;;;;;4218916;28;20052;-86
2022/12/09 02:10:13;;;;;;;14.82;6.47;;;-0.30;99.90;;;;;;4205321;28;20079;-86
2022/12/09 02:12:32;;;;;;;17.23;7.18;;;-0.60;99.90;;;;;;4234176;28;20081;-86
2022/12/09 02:15:08;;;;;;;14.38;5.97;;;-0.50;99.90;;;;;;4234825;28;20488;-86
2022/12/09 02:17:30;;;;;;;15.02;7.07;;;-0.50;99.90;;;;;;4216978;28;20048;-86
2022/12/09 02:19:50;;;;;;;13.63;5.97;;;1.00;99.90;;;;;;4235384;28;20103;-86
2022/12/09 02:21:59;;;;;;;12.35;6.03;;;-0.50;99.90;;;;;;4236549;28;20044;-86
2022/12/09 02:24:11;;;;;;;20.30;6.88;;;-0.50;99.90;;;;;;4236820;28;20071;-86
2022/12/09 02:26:20;;;;;;;17.50;6.22;;;-0.60;99.90;;;;;;4231827;28;20498;-86
2022/12/09 02:28:49;;;;;;;15.77;5.70;;;-0.50;99.90;;;;;;4201847;28;20045;-86
2022/12/09 02:31:05;;;;;;;13.85;6.55;;;-0.60;99.90;;;;;;4220060;28;20385;-86
2022/12/09 02:33:44;;;;;;;16.67;6.93;;;0.00;99.90;;;;;;4216206;28;20044;-86
2022/12/09 02:36:00;;;;;;;18.30;7.03;;;-0.60;99.90;;;;;;4203023;28;20141;-86
2022/12/09 02:38:12;;;;;;;15.07;5.93;;;-0.50;99.90;;;;;;4226965;28;20043;-85
2022/12/09 02:40:24;;;;;;;19.67;5.68;;;-0.40;99.90;;;;;;4219136;28;20048;-85
2022/12/09 02:42:32;;;;;;;16.52;6.45;;;-0.50;99.90;;;;;;4236346;28;20035;-86
2022/12/09 02:44:37;;;;;;;15.27;6.03;;;-0.50;99.90;;;;;;4228104;28;20394;-85
2022/12/09 02:46:41;;;;;;;16.67;6.72;;;0.00;99.90;;;;;;4220300;28;20270;-85
2022/12/09 02:48:57;;;;;;;14.48;6.45;;;0.20;99.90;;;;;;4220262;28;20088;-85
2022/12/09 02:51:05;;;;;;;17.15;7.00;;;-0.50;99.90;;;;;;4219513;28;20139;-84
2022/12/09 02:53:09;;;;;;;15.53;5.83;;;-0.60;99.90;;;;;;4218105;28;20047;-85
2022/12/09 02:55:15;;;;;;;19.60;6.07;;;-0.30;99.90;;;;;;4201280;28;20040;-85
2022/12/09 02:57:23;;;;;;;16.55;5.65;;;0.00;99.90;;;;;;4218254;28;20122;-86
2022/12/09 02:59:24;;;;;;;13.80;5.55;;;0.50;99.90;;;;;;4219364;28;20488;-85
2022/12/09 03:01:40;;;;;;;14.23;5.30;;;-0.60;99.90;;;;;;4227336;28;20039;-85
2022/12/09 03:03:43;;;;;;;15.02;6.80;;;-0.60;99.90;;;;;;4201454;28;20059;-86
2022/12/09 03:06:05;;;;;;;17.10;6.03;;;0.20;99.90;;;;;;4221427;28;20048;-86
2022/12/09 03:08:27;;;;;;;15.90;5.80;;;-0.70;99.90;;;;;;4219136;28;20055;-86
2022/12/09 03:10:43;;;;;;;14.77;5.95;;;0.50;99.90;;;;;;4201656;28;20076;-86
2022/12/09 03:12:54;;;;;;;15.15;5.95;;;-0.60;99.90;;;;;;4201509;28;20055;-86
2022/12/09 03:14:58;;;;;;;14.85;5.88;;;0.50;99.90;;;;;;4217350;28;20048;-86
2022/12/09 03:17:07;;;;;;;17.33;5.90;;;-0.70;99.90;;;;;;4217819;28;20040;-86
2022/12/09 03:19:33;;;;;;;20.25;7.05;;;-0.70;99.90;;;;;;4228272;28;20156;-86
2022/12/09 03:21:41;;;;;;;11.77;4.70;;;-0.70;99.90;;;;;;4232656;28;20047;-86
2022/12/09 03:23:44;;;;;;;17.77;6.05;;;-0.70;99.90;;;;;;4234691;28;20085;-86
2022/12/09 03:25:51;;;;;;;13.43;5.60;;;-0.60;99.90;;;;;;4236053;28;20047;-86
2022/12/09 03:28:33;;;;;;;17.77;5.38;;;-0.60;99.90;;;;;;4217929;28;20084;-86
2022/12/09 03:30:38;;;;;;;17.85;6.47;;;-0.70;99.90;;;;;;4217978;28;20055;-86
2022/12/09 03:32:43;;;;;;;16.20;6.82;;;0.70;99.90;;;;;;4235556;28;20043;-86
2022/12/09 03:34:47;;;;;;;23.60;5.65;;;0.90;99.90;;;;;;4235639;28;20039;-86
2022/12/09 03:36:55;;;;;;;15.50;5.80;;;-0.30;99.90;;;;;;4228311;28;20056;-86
2022/12/09 03:38:58;;;;;;;15.27;5.53;;;-0.60;99.90;;;;;;4219487;28;20044;-86
2022/12/09 03:41:24;;;;;;;22.40;5.97;;;-0.70;99.90;;;;;;4218623;28;20039;-86
2022/12/09 03:43:32;;;;;;;20.90;6.82;;;-0.70;99.90;;;;;;4218175;28;20044;-86
2022/12/09 03:45:33;;;;;;;17.83;6.03;;;0.90;99.90;;;;;;4217122;28;20043;-86
2022/12/09 03:47:35;;;;;;;19.92;5.75;;;0.20;99.90;;;;;;4218811;28;20036;-86
2022/12/09 03:49:39;;;;;;;18.40;6.70;;;-0.70;99.90;;;;;;4201858;28;20071;-86
2022/12/09 03:52:08;;;;;;;17.08;6.32;;;-0.80;99.90;;;;;;4217299;28;20047;-86
2022/12/09 03:54:25;;;;;;;16.17;6.47;;;-0.90;99.90;;;;;;4218316;28;20040;-86
2022/12/09 03:56:33;;;;;;;16.85;6.72;;;-0.60;99.90;;;;;;4217812;28;20516;-86
2022/12/09 03:58:38;;;;;;;16.30;6.68;;;-0.60;99.90;;;;;;4218013;28;20048;-85
2022/12/09 04:00:42;;;;;;;13.45;6.03;;;0.60;99.90;;;;;;4217243;28;20105;-85
2022/12/09 04:02:44;;;;;;;16.20;6.72;;;-0.80;99.90;;;;;;4219183;28;20089;-85
2022/12/09 04:04:46;;;;;;;20.85;5.88;;;-0.80;99.90;;;;;;4217026;28;20047;-85
2022/12/09 04:06:51;;;;;;;15.57;6.85;;;-0.80;99.90;;;;;;4218324;28;20044;-85
2022/12/09 04:08:54;;;;;;;19.08;6.20;;;-0.80;99.90;;;;;;4217055;28;20086;-85
2022/12/09 04:10:56;;;;;;;14.02;6.00;;;-1.40;99.90;;;;;;4218887;28;20047;-86
2022/12/09 04:12:57;;;;;;;17.95;7.03;;;1.00;99.90;;;;;;4230025;28;20051;-85
2022/12/09 04:14:58;;;;;;;17.30;6.65;;;0.60;99.90;;;;;;4234091;28;20051;-85
2022/12/09 04:17:01;;;;;;;18.38;6.85;;;-0.10;99.90;;;;;;4216997;28;20040;-84
2022/12/09 04:19:03;;;;;;;19.75;6.60;;;-1.50;99.90;;;;;;4234007;28;20044;-85
2022/12/09 04:21:08;;;;;;;19.17;6.95;;;-0.80;99.90;;;;;;4235905;28;20122;-85
2022/12/09 04:23:08;;;;;;;16.02;6.45;;;-0.70;99.90;;;;;;4235157;28;20058;-85
2022/12/09 04:25:10;;;;;;;17.88;7.45;;;-0.90;99.90;;;;;;4217805;28;20048;-85
2022/12/09 04:27:13;;;;;;;18.27;6.95;;;-1.10;99.90;;;;;;4235996;28;20556;-86
2022/12/09 04:29:16;;;;;;;13.27;5.88;;;-1.20;99.90;;;;;;4204397;28;20103;-85
2022/12/09 04:31:19;;;;;;;18.05;7.57;;;-0.90;99.90;;;;;;4218269;28;20078;-85
2022/12/09 04:33:22;;;;;;;20.27;7.90;;;0.50;99.90;;;;;;4201074;28;20056;-86
2022/12/09 04:35:24;;;;;;;16.05;6.95;;;-0.90;99.90;;;;;;4201432;28;20048;-85
2022/12/09 04:37:36;;;;;;;19.95;8.15;;;-0.90;99.90;;;;;;4217000;28;20059;-86
2022/12/09 04:39:40;;;;;;;17.02;6.97;;;-0.90;99.90;;;;;;4200862;28;20570;-86
2022/12/09 04:41:41;;;;;;;19.55;7.03;;;-0.90;99.90;;;;;;4219220;28;20052;-87
2022/12/09 04:43:44;;;;;;;19.10;7.07;;;0.20;99.90;;;;;;4218971;28;20066;-85
2022/12/09 04:45:46;;;;;;;18.73;6.65;;;-0.20;99.90;;;;;;4224369;28;20160;-85
2022/12/09 04:47:48;;;;;;;16.45;6.72;;;-0.90;99.90;;;;;;4228670;28;20051;-86
2022/12/09 04:49:50;;;;;;;19.55;7.45;;;-0.90;99.90;;;;;;4219376;28;20124;-85
2022/12/09 04:51:53;;;;;;;19.70;7.20;;;-0.70;99.90;;;;;;4200736;28;20054;-85
2022/12/09 04:53:55;;;;;;;21.73;7.78;;;0.60;99.90;;;;;;4217555;28;20040;-85
2022/12/09 04:56:00;;;;;;;18.33;7.25;;;-0.90;99.90;;;;;;4218628;28;20055;-86
2022/12/09 04:58:03;;;;;;;18.23;7.95;;;-0.90;99.90;;;;;;4221348;28;20426;-85
2022/12/09 05:00:06;;;;;;;17.17;6.90;;;-0.80;99.90;;;;;;4220719;28;20082;-85
2022/12/09 05:02:08;;;;;;;19.92;7.05;;;-0.90;99.90;;;;;;4203567;28;20045;-85
2022/12/09 05:04:10;;;;;;;18.67;6.25;;;-0.90;99.90;;;;;;4220244;28;20081;-85
2022/12/09 05:06:13;;;;;;;16.10;7.35;;;-0.90;99.90;;;;;;4233934;28;20055;-85
2022/12/09 05:08:19;;;;;;;16.05;6.88;;;-0.70;99.90;;;;;;4238948;28;20047;-85
2022/12/09 05:10:22;;;;;;;18.77;7.28;;;0.40;99.90;;;;;;4238684;28;20028;-85
2022/12/09 05:12:25;;;;;;;17.45;6.80;;;-0.90;99.90;;;;;;4237486;28;20128;-86
2022/12/09 05:14:26;;;;;;;14.60;6.00;;;-0.80;99.90;;;;;;4238490;28;20073;-84
2022/12/09 05:16:28;;;;;;;18.48;6.78;;;-0.80;99.90;;;;;;4237988;28;20043;-85
2022/12/09 05:18:30;;;;;;;15.63;6.53;;;0.20;99.90;;;;;;4239219;28;20108;-85
2022/12/09 05:20:31;;;;;;;16.92;6.47;;;0.90;99.90;;;;;;4236752;28;20035;-86
2022/12/09 05:22:33;;;;;;;16.13;6.30;;;0.50;99.90;;;;;;4237796;28;20101;-85
2022/12/09 05:24:39;;;;;;;18.75;7.90;;;0.60;99.90;;;;;;4222088;28;20083;-86
2022/12/09 05:26:42;;;;;;;19.35;6.30;;;-0.10;99.90;;;;;;4236814;28;20090;-86
2022/12/09 05:28:46;;;;;;;17.35;7.38;;;-0.90;99.90;;;;;;4238640;27;20046;-85
2022/12/09 05:30:52;;;;;;;17.70;7.05;;;-1.00;99.90;;;;;;4236577;28;20507;-86
2022/12/09 05:32:54;;;;;;;21.85;7.55;;;-0.90;99.90;;;;;;4238214;28;20067;-86
2022/12/09 05:34:57;;;;;;;17.05;6.18;;;-0.90;99.90;;;;;;4237637;28;20066;-85
2022/12/09 05:36:58;;;;;;;19.85;6.78;;;0.30;99.90;;;;;;4237128;28;20092;-86
2022/12/09 05:39:01;;;;;;;17.15;6.72;;;0.80;99.90;;;;;;4231266;28;20131;-86
2022/12/09 05:41:02;;;;;;;16.02;6.93;;;-1.00;99.90;;;;;;4211373;28;20523;-86
2022/12/09 05:43:08;;;;;;;16.73;6.72;;;0.60;99.90;;;;;;4237328;28;20061;-86
2022/12/09 05:45:10;;;;;;;15.65;6.40;;;0.30;99.90;;;;;;4236997;28;20101;-86
2022/12/09 05:47:12;;;;;;;19.75;8.20;;;-1.00;99.90;;;;;;4238024;28;20048;-86
2022/12/09 05:49:13;;;;;;;20.73;6.28;;;-1.00;99.90;;;;;;4237019;28;20461;-86
2022/12/09 05:51:25;;;;;;;13.88;6.00;;;-1.00;99.90;;;;;;4236826;28;20539;-86
2022/12/09 05:53:28;;;;;;;14.95;6.18;;;-0.90;99.90;;;;;;4237805;28;20051;-86
2022/12/09 05:55:30;;;;;;;14.82;6.32;;;-1.00;99.90;;;;;;4237326;28;20089;-86
2022/12/09 05:57:35;;;;;;;16.73;6.50;;;-1.00;99.90;;;;;;4237577;28;20039;-86
2022/12/09 05:59:38;;;;;;;20.80;8.20;;;-1.00;99.90;;;;;;4236315;28;20054;-87
2022/12/09 06:01:40;;;;;;;20.70;7.82;;;-2.30;99.90;;;;;;4228600;28;20055;-87
2022/12/09 06:03:47;;;;;;;20.15;7.45;;;-1.50;99.90;;;;;;4205379;28;20044;-89
2022/12/09 06:05:50;;;;;;;20.63;7.70;;;-0.90;99.90;;;;;;4205410;28;20511;-87
2022/12/09 06:07:52;;;;;;;15.50;6.57;;;-1.00;99.90;;;;;;4221522;28;20059;-85
2022/12/09 06:09:56;;;;;;;16.27;7.63;;;-0.80;99.90;;;;;;4212949;28;20127;-86
2022/12/09 06:11:56;;;;;;;22.13;8.82;;;-1.30;99.90;;;;;;4229895;28;20524;-84
2022/12/09 06:14:01;;;;;;;18.45;6.70;;;-1.10;99.90;;;;;;4212162;28;20048;-84
2022/12/09 06:16:04;;;;;;;19.50;7.70;;;-0.70;99.90;;;;;;4214812;28;20071;-84
2022/12/09 06:18:09;;;;;;;20.60;7.88;;;-1.10;99.90;;;;;;4233023;28;20044;-85
2022/12/09 06:20:10;;;;;;;19.38;7.03;;;-1.10;99.90;;;;;;4228291;28;20120;-85
2022/12/09 06:22:13;;;;;;;16.35;6.18;;;-0.70;99.90;;;;;;4248298;28;20056;-85
2022/12/09 06:24:16;;;;;;;23.67;7.55;;;-1.20;99.90;;;;;;4229719;28;20105;-84
2022/12/09 06:26:23;;;;;;;17.42;7.05;;;-2.40;99.90;;;;;;4240229;28;20097;-85
2022/12/09 06:28:26;;;;;;;19.88;8.63;;;0.20;99.90;;;;;;4219760;28;20071;-85
2022/12/09 06:30:31;;;;;;;16.90;6.20;;;-1.20;99.90;;;;;;4223827;28;20086;-86
2022/12/09 06:32:34;;;;;;;18.60;6.50;;;-1.30;99.90;;;;;;4221574;28;20032;-86
2022/12/09 06:34:37;;;;;;;20.20;7.13;;;-1.10;99.90;;;;;;4226709;28;20046;-84
2022/12/09 06:36:39;;;;;;;22.38;6.50;;;-0.70;99.90;;;;;;4235428;28;20071;-84
2022/12/09 06:38:42;;;;;;;16.83;7.43;;;-0.40;99.90;;;;;;4207751;28;20059;-84
2022/12/09 06:40:44;;;;;;;21.27;7.95;;;-1.20;99.90;;;;;;4223431;28;20040;-85
2022/12/09 06:42:50;;;;;;;17.50;6.93;;;-1.30;99.90;;;;;;4222143;28;20084;-84
2022/12/09 06:44:55;;;;;;;18.70;7.63;;;-1.20;99.90;;;;;;4224061;28;20089;-84
2022/12/09 06:47:02;;;;;;;18.60;7.07;;;-1.20;99.90;;;;;;4205478;28;20471;-84
2022/12/09 06:49:04;;;;;;;14.38;6.63;;;-1.10;99.90;;;;;;4206486;28;20202;-85
2022/12/09 06:51:06;;;;;;;19.77;7.18;;;-1.10;99.90;;;;;;4206268;28;20151;-84
2022/12/09 06:53:15;;;;;;;18.00;7.18;;;-1.20;99.90;;;;;;4231617;28;20211;-83
2022/12/09 06:55:20;;;;;;;21.27;7.80;;;-1.20;99.90;;;;;;4222929;28;20180;-84
2022/12/09 06:57:23;;;;;;;22.65;8.85;;;-1.20;99.90;;;;;;4239645;28;20040;-84
2022/12/09 06:59:25;;;;;;;19.35;8.05;;;-1.20;99.90;;;;;;4222426;28;20527;-86
2022/12/09 07:01:27;;;;;;;20.73;8.20;;;-1.30;99.90;;;;;;4223630;28;20059;-85
2022/12/09 07:03:30;;;;;;;16.02;7.95;;;-1.20;99.90;;;;;;4242112;28;20054;-84
2022/12/09 07:05:31;;;;;;;16.42;7.40;;;-1.20;99.90;;;;;;4239183;28;20055;-85
2022/12/09 07:07:35;;;;;;;18.10;6.53;;;-1.10;99.90;;;;;;4222183;28;20040;-84
2022/12/09 07:09:38;;;;;;;17.35;7.10;;;-1.10;99.90;;;;;;4213256;28;20413;-85
2022/12/09 07:11:45;;;;;;;19.13;7.15;;;-1.20;99.90;;;;;;4209869;28;20082;-86
2022/12/09 07:13:47;;;;;;;17.80;6.75;;;-1.20;99.90;;;;;;4239323;28;20028;-85
2022/12/09 07:15:56;;;;;;;23.33;8.23;;;0.30;99.90;;;;;;4210024;28;20041;-85
2022/12/09 07:18:02;;;;;;;16.77;6.70;;;-1.20;99.90;;;;;;4220489;28;20058;-84
2022/12/09 07:20:04;;;;;;;17.15;6.30;;;-2.50;99.90;;;;;;4223832;28;20119;-84
2022/12/09 07:22:05;;;;;;;18.38;6.28;;;-1.30;99.90;;;;;;4229798;27;20071;-85
2022/12/09 07:24:11;;;;;;;19.70;6.75;;;-0.60;99.90;;;;;;4228997;28;20037;-86
2022/12/09 07:26:14;;;;;;;19.85;7.63;;;0.20;99.90;;;;;;4223136;28;20051;-85
2022/12/09 07:28:17;;;;;;;16.73;7.22;;;-0.10;99.90;;;;;;4212686;28;20052;-86
2022/12/09 07:30:25;;;;;;;22.65;7.55;;;-1.20;99.90;;;;;;4226788;28;20035;-87
2022/12/09 07:32:26;;;;;;;21.95;7.95;;;-1.30;99.90;;;;;;4237085;28;20032;-86
2022/12/09 07:34:28;;;;;;;15.82;7.32;;;-1.20;99.90;;;;;;4236158;28;20042;-86
2022/12/09 07:36:32;;;;;;;19.67;8.18;;;-1.30;99.90;;;;;;4228278;28;20114;-86
2022/12/09 07:38:46;;;;;;;;;;;;;;;;;;;;;
2022/12/09 07:40:53;;;;;;;18.65;6.72;;;-0.50;99.90;;;;;;4231802;28;20488;-87
2022/12/09 07:43:00;;;;;;;19.02;6.80;;;-1.30;99.90;;;;;;4239629;28;20043;-87
2022/12/09 07:45:03;;;;;;;15.68;6.50;;;-1.30;99.90;;;;;;4239879;28;20071;-86
2022/12/09 07:47:06;;;;;;;19.73;8.10;;;-1.20;99.90;;;;;;4222276;28;20048;-86
2022/12/09 07:49:11;;;;;;;21.90;8.50;;;-1.20;99.90;;;;;;4223391;28;20051;-86
2022/12/09 07:51:15;;;;;;;22.05;7.63;;;-1.20;99.90;;;;;;4230908;28;20059;-86
2022/12/09 07:53:17;;;;;;;19.98;7.75;;;-0.90;99.90;;;;;;4214608;28;20127;-87
2022/12/09 07:55:19;;;;;;;19.25;8.40;;;-1.20;99.90;;;;;;4210203;28;20048;-86
2022/12/09 07:57:24;;;;;;;20.83;8.02;;;-1.10;99.90;;;;;;4221771;28;20055;-87
2022/12/09 07:59:30;;;;;;;19.95;8.55;;;-0.60;99.90;;;;;;4222919;28;20460;-86
2022/12/09 08:01:40;;;;;;;20.33;8.50;;;-1.10;99.90;;;;;;4225758;28;20043;-85
2022/12/09 08:03:42;;;;;;;28.60;9.82;;;-0.30;99.90;;;;;;4205404;28;20133;-84
2022/12/09 08:05:48;;;;;;;24.20;8.75;;;-0.90;99.90;;;;;;4223381;28;20095;-85
2022/12/09 08:07:52;;;;;;;28.02;9.65;;;-2.10;99.90;;;;;;4231471;28;20126;-85
2022/12/09 08:09:55;;;;;;;28.27;10.57;;;-0.80;99.90;;;;;;4238564;28;20126;-85
2022/12/09 08:11:56;;;;;;;29.15;11.02;;;-0.70;99.90;;;;;;4237512;28;20648;-86
2022/12/09 08:14:01;;;;;;;32.13;11.70;;;-1.80;99.90;;;;;;4221207;28;20048;-86
2022/12/09 08:16:04;;;;;;;26.98;10.43;;;-0.70;99.90;;;;;;4230785;28;20036;-86
2022/12/09 08:18:09;;;;;;;30.25;11.27;;;-0.70;99.90;;;;;;4220108;28;20040;-87
2022/12/09 08:20:19;;;;;;;32.75;11.57;;;0.00;99.90;;;;;;4221494;28;20044;-85
2022/12/09 08:22:24;;;;;;;29.85;10.55;;;-0.60;99.90;;;;;;4219584;28;20067;-85
2022/12/09 08:24:25;;;;;;;30.70;11.70;;;0.40;99.90;;;;;;4202796;28;20064;-86
2022/12/09 08:26:30;;;;;;;26.20;11.05;;;-0.50;99.90;;;;;;4220110;28;20508;-86
2022/12/09 08:28:32;;;;;;;32.63;12.65;;;-1.80;99.90;;;;;;4219540;28;20052;-85
2022/12/09 08:30:37;;;;;;;30.30;11.05;;;-0.20;99.90;;;;;;4218872;28;20043;-86
2022/12/09 08:32:39;;;;;;;36.15;13.02;;;0.00;99.90;;;;;;4205487;28;20457;-85
2022/12/09 08:34:39;;;;;;;33.58;12.73;;;1.20;99.90;;;;;;4239644;28;20047;-85
2022/12/09 08:36:41;;;;;;;33.20;11.50;;;1.50;99.90;;;;;;4240115;28;20035;-86
2022/12/09 08:38:43;;;;;;;27.83;11.88;;;0.60;99.90;;;;;;4238489;28;20043;-86
2022/12/09 08:40:44;;;;;;;29.05;11.55;;;0.70;99.90;;;;;;4207739;28;20048;-86
2022/12/09 08:42:46;;;;;;;37.05;13.20;;;0.70;99.90;;;;;;4226292;28;20047;-85
2022/12/09 08:44:49;;;;;;;29.27;10.98;;;-0.50;99.90;;;;;;4215976;28;20052;-86
2022/12/09 08:46:51;;;;;;;29.92;12.20;;;2.20;99.90;;;;;;4215447;28;20040;-86
2022/12/09 08:48:53;;;;;;;29.77;12.43;;;2.10;99.90;;;;;;4235940;28;20048;-85
2022/12/09 08:50:54;;;;;;;33.67;12.30;;;0.90;99.90;;;;;;4232861;28;20115;-85
2022/12/09 08:52:55;;;;;;;36.65;12.48;;;1.50;99.90;;;;;;4215255;28;20040;-86
2022/12/09 08:54:57;;;;;;;26.52;11.30;;;2.80;99.90;;;;;;4235601;28;20047;-87
2022/12/09 08:56:58;;;;;;;28.30;11.98;;;1.70;99.90;;;;;;4212248;28;20036;-85
2022/12/09 08:58:59;;;;;;;26.67;11.73;;;3.50;99.90;;;;;;4206241;28;20062;-86
2022/12/09 09:01:00;;;;;;;27.48;12.38;;;1.90;99.90;;;;;;4206044;28;20048;-86
2022/12/09 09:03:03;;;;;;;28.05;11.43;;;1.90;99.90;;;;;;4233791;28;20043;-86
2022/12/09 09:05:05;;;;;;;27.90;12.18;;;2.00;99.90;;;;;;4224579;28;20043;-86
2022/12/09 09:07:07;;;;;;;25.77;9.48;;;2.40;99.90;;;;;;4230099;28;20063;-86
2022/12/09 09:09:12;;;;;;;25.25;10.68;;;4.30;99.90;;;;;;4214381;28;20072;-86
2022/12/09 09:11:16;;;;;;;29.63;12.38;;;3.20;99.90;;;;;;4225687;28;20040;-85
2022/12/09 09:13:18;;;;;;;29.48;12.55;;;2.50;99.90;;;;;;4202796;28;20432;-84
2022/12/09 09:15:19;;;;;;;27.08;11.93;;;2.30;99.90;;;;;;4223921;28;20042;-85
2022/12/09 09:17:20;;;;;;;29.65;12.15;;;1.90;99.90;;;;;;4230560;28;20044;-85
2022/12/09 09:19:24;;;;;;;27.38;12.23;;;0.60;99.90;;;;;;4231500;28;20041;-85
2022/12/09 09:21:26;;;;;;;26.45;11.13;;;2.70;99.90;;;;;;4213479;28;20044;-84
2022/12/09 09:23:27;;;;;;;29.30;12.07;;;1.90;99.90;;;;;;4232467;28;20114;-85
2022/12/09 09:25:28;;;;;;;33.47;12.95;;;2.10;99.90;;;;;;4231081;28;20101;-85
2022/12/09 09:27:29;;;;;;;25.50;10.75;;;3.60;99.90;;;;;;4222980;28;20048;-85
2022/12/09 09:29:31;;;;;;;28.27;11.40;;;3.20;99.90;;;;;;4228059;28;20047;-86
2022/12/09 09:31:33;;;;;;;28.95;11.15;;;2.50;99.90;;;;;;4213692;28;20048;-86
2022/12/09 09:33:35;;;;;;;24.70;11.65;;;2.80;99.90;;;;;;4224854;28;20028;-85
2022/12/09 09:35:36;;;;;;;27.90;11.00;;;3.10;99.90;;;;;;4234435;28;20050;-85
2022/12/09 09:37:37;;;;;;;26.05;11.05;;;2.40;99.90;;;;;;4229222;28;20518;-86
2022/12/09 09:39:40;;;;;;;28.75;11.30;;;2.40;99.90;;;;;;4232070;28;20541;-85
2022/12/09 09:41:55;;;;;;;25.50;11.50;;;2.90;99.90;;;;;;4228112;28;20044;-86
2022/12/09 09:43:59;;;;;;;29.02;11.20;;;2.20;99.90;;;;;;4219098;28;20543;-86
2022/12/09 09:46:02;;;;;;;24.27;10.18;;;2.00;99.90;;;;;;4209017;28;20501;-87
2022/12/09 09:48:04;;;;;;;28.35;11.25;;;2.00;99.90;;;;;;4210981;28;20040;-86
2022/12/09 09:50:24;;;;;;;28.05;11.18;;;1.90;99.90;;;;;;4220646;28;20036;-87
2022/12/09 09:52:27;;;;;;;24.77;9.68;;;2.10;99.90;;;;;;4223305;28;20036;-85
2022/12/09 09:54:30;;;;;;;24.25;10.60;;;2.10;99.90;;;;;;4222799;28;20404;-86
2022/12/09 09:56:42;;;;;;;27.83;11.15;;;2.10;99.90;;;;;;4216898;28;20040;-89
2022/12/09 09:59:03;;;;;;;23.98;10.27;;;2.00;99.90;;;;;;4231380;28;20115;-90
2022/12/09 10:01:05;;;;;;;24.70;9.70;;;1.90;99.90;;;;;;4228711;28;20082;-88
2022/12/09 10:03:19;;;;;;;26.00;10.65;;;1.00;99.90;;;;;;4237932;28;20069;-89
2022/12/09 10:05:52;;;;;;;25.25;10.25;;;1.80;99.90;;;;;;4208973;28;20052;-88
2022/12/09 10:08:35;;;;;;;23.52;10.07;;;1.80;99.90;;;;;;4221498;28;20400;-88
2022/12/09 10:10:46;;;;;;;24.42;10.77;;;1.80;99.90;;;;;;4218285;28;20044;-88
2022/12/09 10:13:13;;;;;;;25.83;9.90;;;1.70;99.90;;;;;;4200204;28;20485;-89
2022/12/09 10:15:19;;;;;;;23.75;9.88;;;2.00;99.90;;;;;;4216979;28;20059;-88
2022/12/09 10:17:21;;;;;;;27.88;11.23;;;0.90;99.90;;;;;;4200094;28;20045;-88
2022/12/09 10:19:30;;;;;;;25.48;11.45;;;2.30;99.90;;;;;;4200520;28;20097;-88
2022/12/09 10:21:31;;;;;;;;;;;2.50;99.90;;;;;;4216629;28;20092;-88
2022/12/09 10:23:32;;;;;;;22.83;9.65;;;2.80;99.90;;;;;;4199122;28;19920;-88
2022/12/09 10:25:36;;;;;;;23.33;9.93;;;3.10;99.90;;;;;;4216156;28;20039;-88
2022/12/09 10:27:47;;;;;;;24.52;10.07;;;3.70;99.90;;;;;;4215158;28;20047;-88
2022/12/09 10:29:56;;;;;;;28.00;10.43;;;3.00;99.90;;;;;;4215902;28;20420;-88
2022/12/09 10:31:57;;;;;;;21.88;10.38;;;3.20;99.90;;;;;;4226521;28;20126;-87
2022/12/09 10:33:58;;;;;;;23.88;10.05;;;4.80;99.90;;;;;;4233635;28;20101;-88
2022/12/09 10:35:59;;;;;;;24.55;10.35;;;5.10;99.90;;;;;;4230973;28;20043;-88
2022/12/09 10:38:10;;;;;;;24.60;9.25;;;3.70;99.90;;;;;;4222606;28;20040;-88
2022/12/09 10:40:18;;;;;;;21.23;9.30;;;3.80;99.90;;;;;;4197374;28;20134;-89
2022/12/09 10:44:39;;;;;;;20.05;7.90;;;3.90;99.90;;;;;;4214479;28;20087;-87
2022/12/09 10:46:40;;;;;;;20.73;9.43;;;3.90;99.90;;;;;;4198066;28;20098;-88
2022/12/09 10:48:54;;;;;;;20.20;9.77;;;4.80;99.90;;;;;;4215246;28;20553;-88